Time;durP1;ratioP1;P1;durP2;ratioP2;P2;SDS_P1;SDS_P2;PMS_P1;PMS_P2;Temp;Humidity;BMP_temperature;BMP_pressure;BME280_temperature;BME280_humidity;BME280_pressure;Samples;Min_cycle;Max_cycle;Signal;HPM_P1;HPM_P2
2022/10/24 00:00:07;;;;;;;0.03;0.03;;;;;;;14.95;74.05;98886.63;7351612;19;20011;-59
2022/10/24 00:02:32;;;;;;;0.00;0.00;;;;;;;14.92;73.37;98882.44;7350960;19;20078;-58
2022/10/24 00:04:58;;;;;;;0.00;0.00;;;;;;;14.89;73.11;98887.06;7349485;19;20066;-58
2022/10/24 00:07:23;;;;;;;0.00;0.00;;;;;;;14.89;73.33;98892.31;7351713;19;20026;-58
2022/10/24 00:09:49;;;;;;;0.00;0.00;;;;;;;14.81;73.30;98878.88;7350056;19;20010;-56
2022/10/24 00:12:14;;;;;;;0.10;0.10;;;;;;;14.84;74.03;98884.75;7351448;19;20039;-58
2022/10/24 00:14:40;;;;;;;0.00;0.00;;;;;;;14.83;74.38;98882.25;7350020;19;20675;-58
2022/10/24 00:17:06;;;;;;;0.05;0.05;;;;;;;14.82;74.36;98885.81;7359445;19;20011;-59
2022/10/24 00:19:31;;;;;;;0.00;0.00;;;;;;;14.79;73.80;98887.69;7359369;19;20770;-58
2022/10/24 00:21:57;;;;;;;0.00;0.00;;;;;;;14.75;74.02;98885.38;7359395;19;20484;-58
2022/10/24 00:24:24;;;;;;;0.00;0.00;;;;;;;14.72;72.97;98881.19;7357010;19;20095;-57
2022/10/24 00:26:50;;;;;;;0.00;0.00;;;;;;;14.73;73.38;98892.53;7358707;19;20018;-58
2022/10/24 00:29:15;;;;;;;0.00;0.00;;;;;;;14.65;73.97;98882.56;7359306;19;20014;-58
2022/10/24 00:31:41;;;;;;;0.00;0.00;;;;;;;14.68;73.21;98889.38;7357589;19;20528;-58
2022/10/24 00:34:07;;;;;;;0.10;0.10;;;;;;;14.66;73.36;98886.88;7360053;19;20021;-58
2022/10/24 00:36:32;;;;;;;0.00;0.00;;;;;;;14.64;73.52;98883.50;7359054;19;20011;-59
2022/10/24 00:38:58;;;;;;;0.08;0.08;;;;;;;14.62;73.00;98890.66;7357438;19;20017;-57
2022/10/24 00:41:36;;;;;;;0.10;0.10;;;;;;;14.62;72.55;98890.66;7357243;19;20033;-58
2022/10/24 00:44:18;;;;;;;0.10;0.10;;;;;;;14.59;73.24;98890.84;7358778;19;20768;-58
2022/10/24 00:46:47;;;;;;;0.10;0.10;;;;;;;14.55;74.15;98889.41;7358754;19;20539;-58
2022/10/24 00:49:16;;;;;;;0.00;0.00;;;;;;;14.52;73.37;98890.44;7358193;19;20018;-58
2022/10/24 00:51:44;;;;;;;0.08;0.08;;;;;;;14.51;74.01;98890.53;7358401;19;20032;-58
2022/10/24 00:54:12;;;;;;;0.00;0.00;;;;;;;14.49;74.00;98890.63;7357707;19;20039;-58
2022/10/24 00:56:43;;;;;;;0.00;0.00;;;;;;;14.47;74.78;98886.41;7357508;19;20010;-58
2022/10/24 00:59:11;;;;;;;0.00;0.00;;;;;;;14.45;74.03;98883.06;7355620;19;20087;-58
2022/10/24 01:01:37;;;;;;;0.00;0.00;;;;;;;14.42;74.06;98878.00;7359129;19;20010;-58
2022/10/24 01:04:03;;;;;;;0.00;0.00;;;;;;;14.30;72.97;98870.97;7356300;19;20014;-58
2022/10/24 01:06:44;;;;;;;0.00;0.00;;;;;;;14.42;73.07;98893.75;7356292;19;20010;-58
2022/10/24 01:09:23;;;;;;;0.00;0.00;;;;;;;14.40;72.57;98893.03;7357317;19;20014;-58
2022/10/24 01:12:10;;;;;;;0.00;0.00;;;;;;;14.36;73.43;98894.16;7355440;19;20759;-58
2022/10/24 01:15:00;;;;;;;0.00;0.00;;;;;;;14.34;73.05;98885.53;7358269;19;20010;-58
2022/10/24 01:17:41;;;;;;;0.00;0.00;;;;;;;14.31;73.46;98891.00;7354233;19;20028;-58
2022/10/24 01:20:40;;;;;;;0.00;0.00;;;;;;;14.14;73.13;98869.34;7357988;19;20006;-58
2022/10/24 01:23:13;;;;;;;0.00;0.00;;;;;;;14.26;73.81;98894.78;7255618;19;2003988;-58
2022/10/24 01:26:06;;;;;;;0.00;0.00;;;;;;;14.24;73.74;98901.94;7354359;19;20018;-59
2022/10/24 01:28:43;;;;;;;0.00;0.00;;;;;;;14.21;74.00;98902.13;7258850;19;2004410;-57
2022/10/24 01:31:14;;;;;;;0.00;0.00;;;;;;;14.04;74.30;98878.78;7361177;19;20010;-57
2022/10/24 01:33:47;;;;;;;0.00;0.00;;;;;;;14.17;74.95;98903.25;7359637;19;20036;-58
2022/10/24 01:36:19;;;;;;;0.00;0.00;;;;;;;14.05;74.54;98896.22;7360911;19;20045;-58
2022/10/24 01:39:00;;;;;;;0.00;0.00;;;;;;;14.16;73.96;98908.63;7361457;19;20007;-58
2022/10/24 01:41:29;;;;;;;0.00;0.00;;;;;;;13.96;74.50;98881.91;7359864;19;20006;-58
2022/10/24 01:44:01;;;;;;;0.00;0.00;;;;;;;14.11;74.60;98905.47;7361544;19;20090;-58
2022/10/24 01:46:36;;;;;;;0.00;0.00;;;;;;;14.09;74.34;98905.56;7364216;19;20006;-58
2022/10/24 01:49:11;;;;;;;0.00;0.00;;;;;;;13.99;75.03;98899.25;7359126;19;20021;-57
2022/10/24 01:51:38;;;;;;;0.00;0.00;;;;;;;14.07;75.51;98909.22;7360676;19;20692;-58
2022/10/24 01:54:04;;;;;;;0.08;0.08;;;;;;;14.05;75.17;98905.88;7360838;19;20010;-58
2022/10/24 01:56:29;;;;;;;0.00;0.00;;;;;;;14.02;75.15;98910.34;7362092;19;20029;-57
2022/10/24 01:59:29;;;;;;;0.03;0.03;;;;;;;14.06;74.08;98910.16;7350839;19;20014;-58
2022/10/24 02:02:05;;;;;;;0.10;0.10;;;;;;;13.89;75.22;98885.00;7256841;19;2004573;-58
2022/10/24 02:04:34;;;;;;;0.00;0.00;;;;;;;14.01;75.19;98915.72;7363492;19;20097;-58
2022/10/24 02:07:04;;;;;;;0.05;0.05;;;;;;;13.98;75.20;98913.28;7352944;19;20014;-58
2022/10/24 02:09:33;;;;;;;0.00;0.00;;;;;;;13.86;74.72;98893.09;7360878;19;20006;-58
2022/10/24 02:11:59;;;;;;;0.00;0.00;;;;;;;13.88;74.83;98899.06;7358493;19;20019;-58
2022/10/24 02:15:01;;;;;;;0.00;0.00;;;;;;;13.95;73.79;98905.63;7361413;19;20006;-58
2022/10/24 02:17:27;;;;;;;0.00;0.00;;;;;;;13.91;75.22;98907.59;7258756;19;2004403;-57
2022/10/24 02:19:52;;;;;;;0.10;0.10;;;;;;;13.87;73.91;98908.72;7362500;19;20007;-57
2022/10/24 02:22:46;;;;;;;0.00;0.00;;;;;;;13.90;73.56;98912.94;7360539;19;20652;-58
2022/10/24 02:25:23;;;;;;;0.00;0.00;;;;;;;13.87;73.71;98907.88;7262130;19;2004321;-57
2022/10/24 02:28:11;;;;;;;0.00;0.00;;;;;;;13.85;73.81;98915.03;7360324;19;20717;-58
2022/10/24 02:30:44;;;;;;;0.00;0.00;;;;;;;13.83;74.42;98916.91;7358402;19;20015;-58
2022/10/24 02:33:11;;;;;;;0.10;0.10;;;;;;;13.77;74.26;98908.47;7359901;19;20059;-57
2022/10/24 02:35:39;;;;;;;0.00;0.00;;;;;;;13.76;74.82;98906.81;7359508;19;20030;-57
2022/10/24 02:38:14;;;;;;;0.10;0.10;;;;;;;13.75;74.22;98909.53;7361232;19;20461;-58
2022/10/24 02:40:42;;;;;;;0.00;0.00;;;;;;;13.72;74.81;98904.47;7357624;19;20014;-58
2022/10/24 02:43:09;;;;;;;0.00;0.00;;;;;;;13.56;74.75;98886.25;7358896;19;20011;-58
2022/10/24 02:45:36;;;;;;;0.00;0.00;;;;;;;13.56;74.17;98888.88;7361828;19;20007;-58
2022/10/24 02:48:05;;;;;;;0.00;0.00;;;;;;;13.68;74.36;98903.81;7361562;19;20027;-58
2022/10/24 02:50:31;;;;;;;0.00;0.00;;;;;;;13.58;74.34;98896.63;7358674;19;20124;-58
2022/10/24 02:52:57;;;;;;;0.10;0.10;;;;;;;13.64;74.69;98902.34;7360644;19;20035;-58
2022/10/24 02:55:22;;;;;;;0.00;0.00;;;;;;;13.64;73.79;98909.38;7356310;19;20025;-58
2022/10/24 02:57:48;;;;;;;0.00;0.00;;;;;;;13.62;74.40;98903.38;7362064;19;20014;-56
2022/10/24 03:00:13;;;;;;;0.00;0.00;;;;;;;13.59;74.63;98904.44;7359176;19;20037;-58
2022/10/24 03:02:39;;;;;;;0.00;0.00;;;;;;;13.59;74.86;98914.91;7361798;19;20668;-57
2022/10/24 03:05:05;;;;;;;0.00;0.00;;;;;;;13.57;74.86;98908.91;7346156;19;20015;-59
2022/10/24 03:07:30;;;;;;;0.00;0.00;;;;;;;13.57;74.99;98910.69;7354113;19;20121;-58
2022/10/24 03:09:56;;;;;;;0.00;0.00;;;;;;;13.55;74.11;98913.44;7351479;19;20018;-57
2022/10/24 03:12:22;;;;;;;0.00;0.00;;;;;;;13.35;74.39;98885.84;7350812;19;20038;-58
2022/10/24 03:14:48;;;;;;;0.00;0.00;;;;;;;13.44;74.06;98903.63;7354773;19;20015;-57
2022/10/24 03:17:13;;;;;;;0.10;0.10;;;;;;;13.45;74.63;98907.91;7358217;19;20491;-58
2022/10/24 03:19:39;;;;;;;0.00;0.00;;;;;;;13.48;74.74;98914.75;7348478;19;20106;-58
2022/10/24 03:22:04;;;;;;;0.00;0.00;;;;;;;13.47;74.83;98920.94;7353637;19;20617;-58
2022/10/24 03:24:30;;;;;;;0.00;0.00;;;;;;;13.42;74.61;98917.75;7353052;19;20039;-58
2022/10/24 03:26:55;;;;;;;0.00;0.00;;;;;;;13.43;75.00;98922.06;7353454;19;20014;-58
2022/10/24 03:29:20;;;;;;;0.00;0.00;;;;;;;13.42;74.79;98917.75;7355486;19;20021;-58
2022/10/24 03:31:46;;;;;;;0.00;0.00;;;;;;;13.41;75.30;98921.31;7353314;19;20041;-58
2022/10/24 03:34:11;;;;;;;0.00;0.00;;;;;;;13.40;73.98;98915.22;7357376;19;20026;-58
2022/10/24 03:36:37;;;;;;;0.05;0.05;;;;;;;13.38;74.42;98918.88;7355645;19;20878;-58
2022/10/24 03:39:03;;;;;;;0.05;0.05;;;;;;;13.32;74.27;98907.00;7357349;19;20022;-58
2022/10/24 03:41:28;;;;;;;0.00;0.00;;;;;;;13.38;74.37;98917.13;7358186;19;20006;-58
2022/10/24 03:43:54;;;;;;;0.00;0.00;;;;;;;13.38;74.21;98924.13;7358068;19;20025;-58
2022/10/24 03:46:19;;;;;;;0.00;0.00;;;;;;;13.34;75.07;98920.03;7358087;19;20007;-59
2022/10/24 03:48:45;;;;;;;0.00;0.00;;;;;;;13.38;75.10;98926.75;7358533;19;20041;-58
2022/10/24 03:51:10;;;;;;;0.00;0.00;;;;;;;13.38;75.25;98918.88;7361695;19;20014;-59
2022/10/24 03:53:36;;;;;;;0.00;0.00;;;;;;;13.33;74.93;98915.69;7362837;19;20018;-57
2022/10/24 03:56:01;;;;;;;0.08;0.08;;;;;;;13.32;74.77;98916.66;7365019;19;20736;-58
2022/10/24 03:58:27;;;;;;;0.00;0.00;;;;;;;13.41;75.16;98931.81;7362418;19;20015;-58
2022/10/24 04:00:54;;;;;;;0.00;0.00;;;;;;;13.43;75.71;98930.78;7363189;19;20580;-58
2022/10/24 04:03:19;;;;;;;0.00;0.00;;;;;;;13.44;75.71;98931.63;7364163;19;20011;-58
2022/10/24 04:05:44;;;;;;;0.00;0.00;;;;;;;13.44;75.70;98921.13;7364986;19;20022;-58
2022/10/24 04:08:10;;;;;;;0.00;0.00;;;;;;;13.47;75.45;98928.78;7364768;19;20474;-58
2022/10/24 04:10:35;;;;;;;0.00;0.00;;;;;;;13.48;76.12;98933.09;7362008;19;20021;-58
2022/10/24 04:13:01;;;;;;;0.00;0.00;;;;;;;13.48;75.99;98933.09;7363837;19;20018;-58
2022/10/24 04:15:26;;;;;;;0.00;0.00;;;;;;;13.49;75.95;98934.81;7364636;19;20009;-58
2022/10/24 04:17:51;;;;;;;0.00;0.00;;;;;;;13.50;75.78;98936.47;7362534;19;20040;-58
2022/10/24 04:20:19;;;;;;;0.03;0.03;;;;;;;13.50;75.75;98928.63;7361485;19;20039;-59
2022/10/24 04:22:45;;;;;;;0.00;0.00;;;;;;;13.45;75.54;98928.06;7362904;19;20101;-58
2022/10/24 04:25:11;;;;;;;0.00;0.00;;;;;;;13.45;75.81;98933.31;7362742;19;20527;-57
2022/10/24 04:27:39;;;;;;;0.00;0.00;;;;;;;13.55;75.56;98939.66;7360988;19;20002;-58
2022/10/24 04:30:07;;;;;;;0.00;0.00;;;;;;;13.56;76.15;98946.56;7363708;19;20763;-58
2022/10/24 04:32:32;;;;;;;0.00;0.00;;;;;;;13.56;75.95;98941.34;7361358;19;20014;-58
2022/10/24 04:34:58;;;;;;;0.00;0.00;;;;;;;13.58;76.22;98944.69;7360462;19;20017;-57
2022/10/24 04:37:23;;;;;;;0.05;0.05;;;;;;;13.61;75.51;98943.66;7364313;19;20033;-57
2022/10/24 04:39:49;;;;;;;0.05;0.05;;;;;;;13.62;75.64;98948.81;7363962;19;20010;-58
2022/10/24 04:42:14;;;;;;;0.00;0.00;;;;;;;13.62;75.76;98954.06;7361693;19;21027;-58
2022/10/24 04:44:39;;;;;;;0.00;0.00;;;;;;;13.63;75.99;98953.09;7363107;19;20876;-59
2022/10/24 04:47:05;;;;;;;0.00;0.00;;;;;;;13.65;76.53;98955.66;7360858;19;20026;-57
2022/10/24 04:49:30;;;;;;;0.00;0.00;;;;;;;13.59;76.20;98946.41;7361829;19;20029;-58
2022/10/24 04:51:55;;;;;;;0.10;0.10;;;;;;;13.68;76.48;98958.06;7363563;19;20043;-58
2022/10/24 04:54:21;;;;;;;0.10;0.10;;;;;;;13.64;76.18;98949.56;7361322;19;20522;-58
2022/10/24 04:56:46;;;;;;;0.03;0.03;;;;;;;13.69;76.58;98955.38;7361137;19;20094;-58
2022/10/24 04:59:12;;;;;;;0.00;0.00;;;;;;;13.77;76.69;98966.19;7360471;19;20014;-58
2022/10/24 05:01:37;;;;;;;0.00;0.00;;;;;;;13.74;76.59;98958.53;7358783;19;20010;-58
2022/10/24 05:04:03;;;;;;;0.00;0.00;;;;;;;13.83;76.85;98964.13;7360801;19;20010;-58
2022/10/24 05:06:28;;;;;;;0.00;0.00;;;;;;;13.77;76.93;98950.47;7362112;19;20011;-58
2022/10/24 05:08:53;;;;;;;0.03;0.03;;;;;;;13.86;76.61;98961.31;7363077;19;20018;-59
2022/10/24 05:11:19;;;;;;;0.00;0.00;;;;;;;13.53;76.81;98898.72;7362790;19;20557;-58
2022/10/24 05:13:44;;;;;;;0.10;0.10;;;;;;;13.95;76.76;98974.69;7361524;19;20848;-58
2022/10/24 05:16:10;;;;;;;0.00;0.00;;;;;;;13.96;76.26;98967.66;7362330;19;20006;-58
2022/10/24 05:18:35;;;;;;;0.10;0.10;;;;;;;14.00;76.25;98974.41;7360209;19;20007;-58
2022/10/24 05:21:01;;;;;;;0.03;0.03;;;;;;;13.93;76.63;98959.97;7359557;19;20010;-57
2022/10/24 05:23:27;;;;;;;0.00;0.00;;;;;;;14.01;76.60;98969.03;7362177;19;20014;-58
2022/10/24 05:25:52;;;;;;;0.00;0.00;;;;;;;14.04;76.13;98978.50;7361163;19;20010;-58
2022/10/24 05:28:18;;;;;;;0.00;0.00;;;;;;;13.93;75.81;98959.97;7361259;19;20789;-58
2022/10/24 05:30:44;;;;;;;0.00;0.00;;;;;;;14.04;76.24;98978.50;7360858;19;20017;-58
2022/10/24 05:33:09;;;;;;;0.00;0.00;;;;;;;14.04;75.98;98981.13;7359408;19;20015;-58
2022/10/24 05:35:35;;;;;;;0.00;0.00;;;;;;;14.03;76.03;98982.06;7362926;19;20482;-58
2022/10/24 05:38:01;;;;;;;0.10;0.10;;;;;;;13.99;76.12;98981.44;7356669;19;20003;-57
2022/10/24 05:40:26;;;;;;;0.00;0.00;;;;;;;14.02;75.68;98989.09;7362359;19;20665;-58
2022/10/24 05:42:52;;;;;;;0.00;0.00;;;;;;;13.93;75.59;98970.47;7358257;19;20014;-58
2022/10/24 05:45:18;;;;;;;0.10;0.10;;;;;;;14.00;75.14;98983.13;7362290;19;20101;-58
2022/10/24 05:47:43;;;;;;;0.10;0.10;;;;;;;13.99;75.41;98991.09;7359827;19;20014;-58
2022/10/24 05:50:09;;;;;;;0.00;0.00;;;;;;;13.85;75.26;98972.75;7361204;19;20010;-57
2022/10/24 05:52:35;;;;;;;0.00;0.00;;;;;;;13.94;75.19;98993.16;7356320;19;20010;-58
2022/10/24 05:55:05;;;;;;;0.00;0.00;;;;;;;13.92;75.12;98995.88;7363304;19;20038;-58
2022/10/24 05:57:30;;;;;;;0.10;0.10;;;;;;;13.90;75.41;98996.91;7358134;19;20050;-58
2022/10/24 05:59:55;;;;;;;0.00;0.00;;;;;;;13.89;75.22;98989.97;7355330;19;20007;-58
2022/10/24 06:02:21;;;;;;;0.00;0.00;;;;;;;13.88;75.48;98998.78;7359455;19;20102;-58
2022/10/24 06:04:47;;;;;;;0.10;0.10;;;;;;;13.87;75.23;99004.97;7358680;19;20011;-57
2022/10/24 06:07:13;;;;;;;0.00;0.00;;;;;;;13.85;75.17;98999.00;7360732;19;20010;-58
2022/10/24 06:09:40;;;;;;;0.00;0.00;;;;;;;13.84;75.45;99007.78;7362221;19;20039;-58
2022/10/24 06:12:07;;;;;;;0.10;0.10;;;;;;;13.73;75.71;98985.69;7358730;19;20017;-58
2022/10/24 06:14:33;;;;;;;0.07;0.07;;;;;;;13.83;75.93;99000.84;7361153;19;20025;-58
2022/10/24 06:16:58;;;;;;;0.00;0.00;;;;;;;13.83;75.62;99003.47;7358112;19;20433;-58
2022/10/24 06:19:24;;;;;;;0.10;0.10;;;;;;;13.71;75.70;98982.34;7358499;19;20665;-58
2022/10/24 06:21:49;;;;;;;0.00;0.00;;;;;;;13.83;75.69;98999.06;7359357;19;20010;-58
2022/10/24 06:24:15;;;;;;;0.10;0.10;;;;;;;13.85;75.52;99009.50;7359068;19;20014;-57
2022/10/24 06:26:40;;;;;;;0.10;0.10;;;;;;;13.83;75.54;99003.47;7360446;19;20025;-57
2022/10/24 06:29:06;;;;;;;0.00;0.00;;;;;;;13.84;75.75;99010.41;7359252;19;20028;-55
2022/10/24 06:31:34;;;;;;;0.00;0.00;;;;;;;13.86;76.00;99021.66;7359853;19;20113;-58
2022/10/24 06:34:00;;;;;;;0.08;0.08;;;;;;;13.73;76.19;98996.19;7357262;19;20014;-59
2022/10/24 06:36:25;;;;;;;0.00;0.00;;;;;;;13.88;75.87;99017.16;7361778;19;20489;-58
2022/10/24 06:38:50;;;;;;;0.03;0.03;;;;;;;13.90;76.01;99018.75;7359099;19;20525;-58
2022/10/24 06:41:16;;;;;;;0.00;0.00;;;;;;;13.92;76.12;99016.03;7362479;19;20011;-58
2022/10/24 06:43:42;;;;;;;0.00;0.00;;;;;;;13.93;75.91;99018.53;7358448;19;20006;-58
2022/10/24 06:46:09;;;;;;;0.08;0.08;;;;;;;13.85;75.96;99004.25;7364141;19;20011;-58
2022/10/24 06:48:35;;;;;;;0.00;0.00;;;;;;;13.95;75.95;99021.09;7359397;19;20018;-57
2022/10/24 06:51:01;;;;;;;0.00;0.00;;;;;;;13.94;75.86;99008.91;7361752;19;20366;-58
2022/10/24 06:53:26;;;;;;;0.00;0.00;;;;;;;13.85;75.73;98996.38;7359535;19;20011;-58
2022/10/24 06:55:52;;;;;;;0.00;0.00;;;;;;;13.95;76.01;99014.06;7361241;19;20410;-58
2022/10/24 06:58:17;;;;;;;0.00;0.00;;;;;;;13.92;75.66;99016.03;7359148;19;20026;-58
2022/10/24 07:00:43;;;;;;;0.00;0.00;;;;;;;13.99;75.76;99023.44;7357595;19;20491;-58
2022/10/24 07:03:14;;;;;;;0.00;0.00;;;;;;;13.92;75.90;99000.28;7349101;19;20045;-58
2022/10/24 07:05:39;;;;;;;0.00;0.00;;;;;;;14.01;75.70;99032.03;7348778;19;20045;-58
2022/10/24 07:08:05;;;;;;;0.00;0.00;;;;;;;14.02;75.51;99025.84;7364085;19;20014;-58
2022/10/24 07:10:30;;;;;;;0.10;0.10;;;;;;;14.02;75.72;99028.47;7362792;19;20085;-57
2022/10/24 07:12:55;;;;;;;0.03;0.03;;;;;;;13.90;75.67;99008.25;7363901;19;20006;-58
2022/10/24 07:15:21;;;;;;;0.00;0.00;;;;;;;14.03;75.58;99031.91;7362864;19;20039;-58
2022/10/24 07:17:46;;;;;;;0.00;0.00;;;;;;;14.01;75.24;99037.28;7363836;19;20022;-58
2022/10/24 07:20:13;;;;;;;0.05;0.05;;;;;;;14.01;74.90;99042.53;7363865;19;20589;-58
2022/10/24 07:22:39;;;;;;;0.00;0.00;;;;;;;13.99;74.99;99040.97;7361382;19;20013;-58
2022/10/24 07:25:05;;;;;;;0.00;0.00;;;;;;;13.97;74.72;99035.78;7361310;19;22597;-58
2022/10/24 07:27:31;;;;;;;0.00;0.00;;;;;;;13.96;75.17;99038.50;7360163;19;20011;-58
2022/10/24 07:29:56;;;;;;;0.00;0.00;;;;;;;13.84;74.62;99034.88;7362674;19;20019;-58
2022/10/24 07:32:22;;;;;;;0.00;0.00;;;;;;;13.91;75.35;99046.66;7361151;19;20014;-59
2022/10/24 07:34:47;;;;;;;0.10;0.10;;;;;;;13.79;75.32;99041.34;7362005;19;20023;-58
2022/10/24 07:37:14;;;;;;;0.10;0.10;;;;;;;13.91;74.66;99061.56;7358683;19;20017;-58
2022/10/24 07:39:40;;;;;;;0.10;0.10;;;;;;;13.89;75.33;99063.44;7360423;19;20014;-58
2022/10/24 07:42:05;;;;;;;0.00;0.00;;;;;;;13.90;74.94;99063.38;7364084;19;20358;-58
2022/10/24 07:44:30;;;;;;;0.00;0.00;;;;;;;13.91;75.02;99062.41;7362333;19;20064;-58
2022/10/24 07:46:56;;;;;;;0.00;0.00;;;;;;;13.94;75.23;99066.66;7358828;19;20002;-58
2022/10/24 07:49:21;;;;;;;0.10;0.10;;;;;;;13.89;75.20;99059.06;7361584;19;20856;-59
2022/10/24 07:51:47;;;;;;;0.00;0.00;;;;;;;13.94;75.14;99057.00;7361779;19;20640;-58
2022/10/24 07:54:12;;;;;;;0.10;0.10;;;;;;;13.96;75.28;99067.38;7362013;19;20011;-57
2022/10/24 07:56:38;;;;;;;0.00;0.00;;;;;;;14.01;75.56;99078.44;7360378;19;20041;-58
2022/10/24 07:59:03;;;;;;;0.00;0.00;;;;;;;13.95;75.80;99060.44;7359342;19;20037;-58
2022/10/24 08:01:29;;;;;;;0.10;0.10;;;;;;;14.02;75.79;99074.88;7358495;19;20025;-59
2022/10/24 08:03:55;;;;;;;0.10;0.10;;;;;;;14.08;75.33;99079.72;7359345;19;20017;-58
2022/10/24 08:06:28;;;;;;;0.10;0.10;;;;;;;14.15;75.61;99088.91;7357958;19;20039;-58
2022/10/24 08:08:54;;;;;;;0.00;0.00;;;;;;;14.15;75.84;99080.19;7357494;19;20037;-58
2022/10/24 08:11:22;;;;;;;0.00;0.00;;;;;;;14.21;75.93;99096.41;7359101;19;21736;-58
2022/10/24 08:13:49;;;;;;;0.00;0.00;;;;;;;14.20;75.48;99084.22;7358067;19;20458;-58
2022/10/24 08:16:16;;;;;;;0.10;0.10;;;;;;;14.25;75.68;99087.38;7357999;19;20053;-58
2022/10/24 08:18:41;;;;;;;0.00;0.00;;;;;;;14.28;75.55;99089.81;7359734;19;20014;-56
2022/10/24 08:21:11;;;;;;;0.00;0.00;;;;;;;14.32;75.96;99094.88;7357199;19;20018;-58
2022/10/24 08:23:41;;;;;;;0.00;0.00;;;;;;;14.35;76.06;99102.56;7358135;19;20545;-58
2022/10/24 08:26:08;;;;;;;0.00;0.00;;;;;;;14.36;75.83;99115.59;7358794;19;20783;-58
2022/10/24 08:28:34;;;;;;;0.00;0.00;;;;;;;14.36;75.62;99110.34;7359023;19;20019;-58
2022/10/24 08:31:03;;;;;;;0.05;0.05;;;;;;;14.42;75.44;99114.34;7357402;19;20518;-57
2022/10/24 08:33:29;;;;;;;0.00;0.00;;;;;;;14.41;75.32;99124.00;7359566;19;20744;-58
2022/10/24 08:36:02;;;;;;;0.00;0.00;;;;;;;14.45;75.68;99125.50;7361181;19;20010;-58
2022/10/24 08:38:28;;;;;;;0.00;0.00;;;;;;;14.45;75.92;99124.66;7367622;19;20007;-58
2022/10/24 08:40:54;;;;;;;0.10;0.10;;;;;;;14.35;75.84;99118.31;7365745;19;21465;-58
2022/10/24 08:43:21;;;;;;;0.00;0.00;;;;;;;14.47;75.55;99141.16;7364725;19;20023;-58
2022/10/24 08:46:14;;;;;;;0.00;0.00;;;;;;;14.53;75.90;99143.44;7366859;19;20023;-58
2022/10/24 08:48:50;;;;;;;0.00;0.00;;;;;;;14.53;75.80;99149.53;7367822;19;20782;-58
2022/10/24 08:51:37;;;;;;;0.10;0.10;;;;;;;14.54;75.69;99139.84;7367365;19;20006;-56
2022/10/24 08:54:05;;;;;;;0.00;0.00;;;;;;;14.53;75.43;99148.69;7367377;19;20030;-58
2022/10/24 08:56:32;;;;;;;0.00;0.00;;;;;;;14.53;75.35;99144.25;7366945;19;20089;-58
2022/10/24 08:59:00;;;;;;;0.10;0.10;;;;;;;14.55;75.56;99152.06;7364616;19;20006;-58
2022/10/24 09:01:55;;;;;;;0.10;0.10;;;;;;;14.59;76.04;99152.69;7366939;19;20409;-58
2022/10/24 09:04:24;;;;;;;0.00;0.00;;;;;;;14.58;75.60;99157.13;7261711;19;2004595;-58
2022/10/24 09:06:52;;;;;;;0.00;0.00;;;;;;;14.58;75.37;99154.47;7363096;19;20011;-59
2022/10/24 09:09:32;;;;;;;0.05;0.05;;;;;;;14.60;75.77;99150.00;7366994;19;20689;-58
2022/10/24 09:12:02;;;;;;;0.00;0.00;;;;;;;14.59;75.77;99155.31;7364300;19;20014;-58
2022/10/24 09:14:35;;;;;;;0.10;0.10;;;;;;;14.63;75.85;99170.78;7364851;19;20084;-58
2022/10/24 09:17:18;;;;;;;0.10;0.10;;;;;;;14.64;76.21;99166.38;7363663;19;20014;-58
2022/10/24 09:19:53;;;;;;;0.10;0.10;;;;;;;14.48;75.85;99151.59;7363483;19;20053;-59
2022/10/24 09:22:21;;;;;;;0.10;0.10;;;;;;;14.68;76.08;99179.22;7361976;19;20556;-58
2022/10/24 09:25:06;;;;;;;0.00;0.00;;;;;;;14.71;76.21;99178.19;7365103;19;20466;-58
2022/10/24 09:27:35;;;;;;;0.00;0.00;;;;;;;14.72;76.22;99185.13;7366648;19;20564;-58
2022/10/24 09:30:01;;;;;;;0.00;0.00;;;;;;;14.74;76.19;99186.72;7365100;19;20446;-58
2022/10/24 09:32:30;;;;;;;0.00;0.00;;;;;;;14.79;75.76;99187.25;7366016;19;20029;-58
2022/10/24 09:35:18;;;;;;;0.00;0.00;;;;;;;14.67;75.89;99161.78;7366498;19;20021;-58
2022/10/24 09:37:47;;;;;;;0.10;0.10;;;;;;;14.86;75.99;99193.00;7364909;19;20006;-59
2022/10/24 09:40:16;;;;;;;0.05;0.05;;;;;;;14.91;76.44;99196.16;7366794;19;20573;-58
2022/10/24 09:42:57;;;;;;;0.00;0.00;;;;;;;15.00;76.83;99197.34;7363472;19;20018;-58
2022/10/24 09:45:34;;;;;;;0.10;0.10;;;;;;;15.07;76.37;99198.63;7365582;19;20800;-58
2022/10/24 09:48:05;;;;;;;0.10;0.10;;;;;;;15.02;76.56;99182.31;7364347;19;20014;-58
2022/10/24 09:50:34;;;;;;;0.00;0.00;;;;;;;15.21;76.16;99198.59;7366002;19;20081;-58
2022/10/24 09:53:02;;;;;;;0.05;0.05;;;;;;;15.26;75.82;99204.38;7366362;19;20011;-59
2022/10/24 09:55:28;;;;;;;0.10;0.10;;;;;;;15.27;75.87;99192.91;7363805;19;20018;-58
2022/10/24 09:57:58;;;;;;;0.10;0.10;;;;;;;15.39;75.81;99207.03;7365403;19;20105;-58
2022/10/24 10:00:28;;;;;;;0.00;0.00;;;;;;;15.46;75.66;99207.44;7365953;19;20014;-58
2022/10/24 10:03:20;;;;;;;0.10;0.10;;;;;;;15.47;75.40;99211.78;7365013;19;20352;-58
2022/10/24 10:05:48;;;;;;;0.03;0.03;;;;;;;15.52;75.03;99212.34;7366557;19;20018;-58
2022/10/24 10:08:34;;;;;;;0.00;0.00;;;;;;;15.57;75.70;99212.88;7364113;19;20016;-58
2022/10/24 10:11:01;;;;;;;0.00;0.00;;;;;;;15.63;75.26;99219.50;7364933;19;20014;-58
2022/10/24 10:13:28;;;;;;;0.00;0.00;;;;;;;15.67;75.25;99219.22;7365116;19;20010;-58
2022/10/24 10:15:58;;;;;;;0.00;0.00;;;;;;;15.75;75.70;99227.44;7366460;19;20023;-58
2022/10/24 10:18:28;;;;;;;0.10;0.10;;;;;;;15.80;75.48;99220.06;7365259;19;20504;-58
2022/10/24 10:21:00;;;;;;;0.10;0.10;;;;;;;15.91;75.52;99223.75;7364821;19;20014;-59
2022/10/24 10:23:52;;;;;;;0.10;0.10;;;;;;;16.01;75.97;99219.56;7365389;19;20028;-58
2022/10/24 10:26:44;;;;;;;0.10;0.10;;;;;;;16.10;75.90;99218.91;7264234;19;2004619;-57
2022/10/24 10:29:15;;;;;;;0.00;0.00;;;;;;;16.20;75.67;99224.41;7264705;19;2004583;-58
2022/10/24 10:32:05;;;;;;;0.10;0.10;;;;;;;16.30;75.68;99228.91;7365102;19;20041;-59
2022/10/24 10:34:31;;;;;;;0.08;0.08;;;;;;;16.38;75.08;99225.75;7365721;19;20011;-58
2022/10/24 10:37:08;;;;;;;0.00;0.00;;;;;;;16.60;75.80;99238.25;7362021;19;25231;-58
2022/10/24 10:39:33;;;;;;;;;;;;;;;16.82;77.54;99227.03;7366265;19;20015;-58
2022/10/24 10:42:08;;;;;;;0.10;0.10;;;;;;;16.97;74.57;99233.00;7365895;19;19929;-58
2022/10/24 10:44:39;;;;;;;0.00;0.00;;;;;;;17.17;73.27;99232.41;7364503;19;20506;-58
2022/10/24 10:47:19;;;;;;;0.10;0.10;;;;;;;17.38;74.16;99241.34;7364600;19;20832;-58
2022/10/24 10:49:47;;;;;;;0.00;0.00;;;;;;;17.47;73.71;99245.13;7365756;19;20002;-58
2022/10/24 10:52:40;;;;;;;0.10;0.10;;;;;;;17.61;73.22;99241.47;7363049;19;20037;-58
2022/10/24 10:55:17;;;;;;;0.10;0.10;;;;;;;17.76;72.65;99250.06;7365013;19;20007;-58
2022/10/24 10:57:45;;;;;;;;;;;;;;;17.87;74.65;99253.56;7364518;19;20015;-58
2022/10/24 11:00:16;;;;;;;0.10;0.10;;;;;;;17.84;70.69;99253.81;7364575;19;19914;-57
2022/10/24 11:02:54;;;;;;;0.10;0.10;;;;;;;17.88;70.13;99244.69;7363079;19;20006;-58
2022/10/24 11:05:31;;;;;;;0.10;0.10;;;;;;;17.91;70.18;99250.69;7363914;19;20010;-58
2022/10/24 11:08:03;;;;;;;;;;;;;;;18.01;73.14;99246.41;7364130;19;20783;-58
2022/10/24 11:10:38;;;;;;;0.10;0.10;;;;;;;18.04;70.75;99249.63;7363846;19;20355;-57
2022/10/24 11:13:10;;;;;;;0.10;0.10;;;;;;;18.13;69.94;99250.72;7363527;19;20002;-56
2022/10/24 11:15:42;;;;;;;0.10;0.10;;;;;;;18.32;70.86;99248.34;7363819;19;20013;-58
2022/10/24 11:18:10;;;;;;;0.00;0.00;;;;;;;18.61;71.79;99247.88;7365189;19;20074;-58
2022/10/24 11:20:41;;;;;;;0.00;0.00;;;;;;;18.88;68.58;99256.28;7363057;19;20006;-58
2022/10/24 11:23:15;;;;;;;0.10;0.10;;;;;;;19.21;68.70;99262.47;7362334;19;20009;-58
2022/10/24 11:25:47;;;;;;;0.10;0.10;;;;;;;19.39;67.37;99253.00;7361270;19;20006;-58
2022/10/24 11:28:24;;;;;;;0.10;0.10;;;;;;;19.69;68.41;99259.41;7362039;19;21381;-58
2022/10/24 11:30:55;;;;;;;0.10;0.10;;;;;;;19.90;67.23;99247.00;7364166;19;20010;-58
2022/10/24 11:33:25;;;;;;;0.10;0.10;;;;;;;20.21;65.18;99252.34;7362971;19;20041;-58
2022/10/24 11:36:09;;;;;;;0.10;0.10;;;;;;;20.55;67.48;99250.31;7362833;19;20021;-59
2022/10/24 11:38:50;;;;;;;0.10;0.10;;;;;;;20.81;65.76;99250.69;7364112;19;20020;-58
2022/10/24 11:41:44;;;;;;;0.10;0.10;;;;;;;21.14;66.74;99257.47;7362056;19;20025;-58
2022/10/24 11:44:18;;;;;;;0.10;0.10;;;;;;;21.31;63.34;99258.63;7258921;19;2004244;-58